createdAt,value
2018-07-22T00:00:59.529Z,97056.03
2018-07-22T00:03:29.583Z,97051.55
2018-07-22T00:06:00.705Z,97043.05
2018-07-22T00:08:31.705Z,97044.66
2018-07-22T00:11:01.529Z,97039.59
2018-07-22T00:13:32.803Z,97035.23
2018-07-22T00:16:04.088Z,97033.05
2018-07-22T00:18:33.899Z,97025.79
2018-07-22T00:21:03.766Z,97024.34
2018-07-22T00:23:33.778Z,97031.45
2018-07-22T00:26:05.001Z,97034.03
2018-07-22T00:28:36.087Z,97026.95
2018-07-22T00:31:05.964Z,97023.39
2018-07-22T00:33:35.895Z,97025.00
2018-07-22T00:36:05.752Z,97021.48
2018-07-22T00:38:37.877Z,97028.72
2018-07-22T00:41:08.456Z,97028.48
2018-07-22T00:43:38.338Z,97029.19
2018-07-22T00:46:08.678Z,97027.59
2018-07-22T00:48:40.588Z,97024.53
2018-07-22T00:54:22.385Z,97021.81
2018-07-22T00:56:55.388Z,97018.91
2018-07-22T00:59:26.808Z,97026.53
2018-07-22T01:01:57.632Z,97026.04
2018-07-22T01:04:28.551Z,97025.16
2018-07-22T01:06:59.664Z,97017.54
2018-07-22T01:09:30.698Z,97024.19
2018-07-22T01:12:01.597Z,97017.05
2018-07-22T01:14:31.917Z,97002.89
2018-07-22T01:17:01.840Z,96996.34
2018-07-22T01:19:31.859Z,97005.92
2018-07-22T01:22:01.727Z,97001.39
2018-07-22T01:24:31.692Z,97006.25
2018-07-22T01:27:01.644Z,96999.32
2018-07-22T01:29:31.591Z,96991.20
2018-07-22T01:32:01.707Z,96989.02
2018-07-22T01:34:31.640Z,96989.02
2018-07-22T01:37:01.730Z,96994.09
2018-07-22T01:39:31.675Z,96991.34
2018-07-22T01:42:01.647Z,97001.74
2018-07-22T01:44:31.757Z,96998.53
2018-07-22T01:47:01.996Z,96997.63
2018-07-22T01:49:31.917Z,96984.55
2018-07-22T01:52:03.801Z,96985.34
2018-07-22T01:54:33.977Z,96986.05
2018-07-22T01:57:04.161Z,96993.75
2018-07-22T01:59:35.786Z,96985.91
2018-07-22T02:02:06.472Z,96980.64
2018-07-22T02:04:36.398Z,96977.98
2018-07-22T02:07:07.434Z,96976.55
2018-07-22T02:09:37.552Z,96981.45
2018-07-22T02:12:08.536Z,96985.47
2018-07-22T02:14:39.579Z,96980.38
2018-07-22T02:17:09.619Z,96989.00
2018-07-22T02:20:06.239Z,96986.76
2018-07-22T02:22:39.392Z,96984.44
2018-07-22T02:25:12.333Z,96995.66
2018-07-22T02:27:43.296Z,96998.98
2018-07-22T02:30:13.292Z,96994.39
2018-07-22T02:32:44.245Z,96975.53
2018-07-22T02:35:18.314Z,96992.04
2018-07-22T02:37:48.379Z,96999.16
2018-07-22T02:40:20.592Z,96996.34
2018-07-22T02:42:51.826Z,96995.79
2018-07-22T02:45:21.850Z,96996.66
2018-07-22T02:47:51.735Z,97008.00
2018-07-22T02:50:25.053Z,96999.95
2018-07-22T02:52:56.089Z,96998.93
2018-07-22T02:55:27.581Z,97003.44
2018-07-22T02:57:58.312Z,96998.29
2018-07-22T03:00:28.463Z,97007.28
2018-07-22T03:02:59.857Z,97010.48
2018-07-22T03:05:29.818Z,97010.12
2018-07-22T03:07:59.792Z,97016.83
2018-07-22T03:10:29.743Z,97017.84
2018-07-22T03:12:59.761Z,97019.13
2018-07-22T03:15:29.715Z,97015.20
2018-07-22T03:18:22.782Z,97010.78
2018-07-22T03:20:58.242Z,97021.36
2018-07-22T03:23:33.609Z,97022.22
2018-07-22T03:26:04.382Z,97029.37
2018-07-22T03:28:34.729Z,97027.59
2018-07-22T03:31:04.710Z,97027.76
2018-07-22T03:33:35.374Z,97036.88
2018-07-22T03:36:06.013Z,97031.64
2018-07-22T03:38:35.872Z,97030.86
2018-07-22T03:41:06.382Z,97031.91
2018-07-22T03:43:36.221Z,97033.16
2018-07-22T03:46:06.613Z,97030.51
2018-07-22T03:48:36.639Z,97030.47
2018-07-22T03:51:07.167Z,97026.84
2018-07-22T03:53:37.012Z,97030.78
2018-07-22T03:56:07.222Z,97035.30
2018-07-22T03:58:37.330Z,97035.80
2018-07-22T04:01:07.916Z,97040.08
2018-07-22T04:03:37.756Z,97038.71
2018-07-22T04:06:08.284Z,97040.13
2018-07-22T04:08:38.223Z,97042.43
2018-07-22T04:11:09.021Z,97039.00
2018-07-22T04:13:38.969Z,97042.47
2018-07-22T04:16:09.343Z,97045.67
2018-07-22T04:18:43.961Z,97045.67
2018-07-22T04:21:13.879Z,97044.67
2018-07-22T04:23:43.939Z,97038.34
2018-07-22T04:26:13.832Z,97033.51
2018-07-22T04:28:43.717Z,97034.85
2018-07-22T04:31:13.664Z,97034.02
2018-07-22T04:33:43.736Z,97047.81
2018-07-22T04:36:14.271Z,97041.70
2018-07-22T04:38:44.299Z,97044.19
2018-07-22T04:41:14.356Z,97046.20
2018-07-22T04:43:44.684Z,97050.09
2018-07-22T04:46:14.762Z,97055.45
2018-07-22T04:48:44.806Z,97063.14
2018-07-22T04:51:14.843Z,97063.75
2018-07-22T04:53:45.244Z,97060.79
2018-07-22T04:56:15.264Z,97057.88
2018-07-22T04:58:45.266Z,97059.32
2018-07-22T05:01:15.227Z,97057.23
2018-07-22T05:03:45.300Z,97048.20
2018-07-22T05:06:15.384Z,97053.63
2018-07-22T05:08:45.830Z,97054.46
2018-07-22T05:11:15.900Z,97052.57
2018-07-22T05:13:46.070Z,97058.00
2018-07-22T05:16:16.109Z,97060.37
2018-07-22T05:18:46.073Z,97061.80
2018-07-22T05:21:16.229Z,97063.19
2018-07-22T05:23:46.249Z,97065.49
2018-07-22T05:26:16.173Z,97062.61
2018-07-22T05:28:46.239Z,97071.36
2018-07-22T05:31:16.196Z,97072.25
2018-07-22T05:33:46.187Z,97078.70
2018-07-22T05:36:16.236Z,97080.09
2018-07-22T05:38:46.323Z,97082.38
2018-07-22T05:41:16.324Z,97081.14
2018-07-22T05:43:46.304Z,97090.60
2018-07-22T05:46:16.347Z,97088.53
2018-07-22T05:48:46.343Z,97091.75
2018-07-22T05:51:16.245Z,97093.69
2018-07-22T05:53:46.788Z,97095.17
2018-07-22T05:56:17.063Z,97090.15
2018-07-22T05:58:47.119Z,97092.21
2018-07-22T06:01:17.471Z,97094.33
2018-07-22T06:03:47.576Z,97086.70
2018-07-22T06:06:17.765Z,97089.13
2018-07-22T06:08:48.072Z,97089.01
2018-07-22T06:11:18.011Z,97091.55
2018-07-22T06:13:48.760Z,97099.81
2018-07-22T06:16:18.803Z,97101.09
2018-07-22T06:18:54.254Z,97107.52
2018-07-22T06:21:25.789Z,97102.31
2018-07-22T06:23:55.859Z,97103.52
2018-07-22T06:26:48.059Z,97106.38
2018-07-22T06:29:18.384Z,97096.96
2018-07-22T06:31:50.341Z,97102.73
2018-07-22T06:34:22.826Z,97095.23
2018-07-22T06:36:52.779Z,97093.02
2018-07-22T06:39:22.750Z,97097.80
2018-07-22T06:41:52.693Z,97096.36
2018-07-22T06:44:22.660Z,97103.44
2018-07-22T06:46:52.567Z,97102.95
2018-07-22T06:49:22.723Z,97104.27
2018-07-22T06:51:52.652Z,97106.00
2018-07-22T06:54:22.671Z,97104.42
2018-07-22T06:57:06.952Z,97108.73
2018-07-22T06:59:36.928Z,97108.95
2018-07-22T07:02:07.916Z,97113.64
2018-07-22T07:04:37.882Z,97106.16
2018-07-22T07:07:08.730Z,97101.68
2018-07-22T07:09:39.453Z,97108.62
2018-07-22T07:12:09.955Z,97115.97
2018-07-22T07:14:40.007Z,97115.05
2018-07-22T07:17:10.069Z,97123.02
2018-07-22T07:19:40.144Z,97116.28
2018-07-22T07:22:18.083Z,97111.27
2018-07-22T07:24:48.063Z,97116.36
2018-07-22T07:27:18.131Z,97118.55
2018-07-22T07:29:48.002Z,97121.73
2018-07-22T07:32:17.877Z,97116.00
2018-07-22T07:34:47.837Z,97112.11
2018-07-22T07:37:18.000Z,97116.99
2018-07-22T07:39:47.890Z,97105.84
2018-07-22T07:42:18.080Z,97109.45
2018-07-22T07:44:48.621Z,97115.14
2018-07-22T07:47:19.046Z,97115.14
2018-07-22T07:49:50.204Z,97112.61
2018-07-22T07:52:20.232Z,97112.94
2018-07-22T07:54:50.103Z,97112.99
2018-07-22T07:57:20.312Z,97118.34
2018-07-22T07:59:53.423Z,97112.52
2018-07-22T08:02:25.417Z,97113.18
2018-07-22T08:04:55.848Z,97117.77
2018-07-22T08:07:25.915Z,97110.30
2018-07-22T08:09:55.947Z,97120.64
2018-07-22T08:12:25.864Z,97117.75
2018-07-22T08:14:55.961Z,97128.75
2018-07-22T08:17:26.065Z,97121.16
2018-07-22T08:19:56.026Z,97121.45
2018-07-22T08:22:25.988Z,97124.56
2018-07-22T08:24:55.879Z,97125.06
2018-07-22T08:27:25.757Z,97126.72
2018-07-22T08:29:55.898Z,97124.81
2018-07-22T08:32:25.743Z,97120.14
2018-07-22T08:34:55.702Z,97119.19
2018-07-22T08:37:25.909Z,97116.66
2018-07-22T08:39:55.795Z,97115.02
2018-07-22T08:42:25.705Z,97122.31
2018-07-22T08:44:55.821Z,97131.90
2018-07-22T08:47:25.947Z,97123.30
2018-07-22T08:49:55.948Z,97132.17
2018-07-22T08:52:26.007Z,97123.70
2018-07-22T08:54:55.955Z,97130.47
2018-07-22T08:57:25.916Z,97124.64
2018-07-22T08:59:55.859Z,97126.63
2018-07-22T09:02:25.775Z,97123.05
2018-07-22T09:04:55.686Z,97122.86
2018-07-22T09:07:25.580Z,97123.55
2018-07-22T09:09:55.502Z,97125.13
2018-07-22T09:12:25.421Z,97129.45
2018-07-22T09:14:56.677Z,97128.63
2018-07-22T09:17:26.715Z,97129.95
2018-07-22T09:19:56.635Z,97126.58
2018-07-22T09:22:26.569Z,97123.09
2018-07-22T09:24:56.396Z,97115.55
2018-07-22T09:27:26.271Z,97116.43
2018-07-22T09:29:56.057Z,97116.72
2018-07-22T09:32:25.989Z,97111.50
2018-07-22T09:34:56.075Z,97107.02
2018-07-22T09:37:26.195Z,97108.73
2018-07-22T09:39:56.237Z,97107.38
2018-07-22T09:42:26.117Z,97106.28
2018-07-22T09:44:56.183Z,97108.62
2018-07-22T09:47:26.044Z,97105.95
2018-07-22T09:49:55.852Z,97110.76
2018-07-22T09:52:26.692Z,97118.09
2018-07-22T09:54:56.567Z,97113.13
2018-07-22T09:57:26.469Z,97113.10
2018-07-22T09:59:57.011Z,97109.75
2018-07-22T10:02:27.037Z,97104.06
2018-07-22T10:04:57.203Z,97109.36
2018-07-22T10:07:27.695Z,97108.67
2018-07-22T10:09:57.679Z,97116.44
2018-07-22T10:12:27.733Z,97105.70
2018-07-22T10:14:57.696Z,97097.52
2018-07-22T10:35:25.748Z,97094.04
2018-07-22T10:37:55.644Z,97099.19
2018-07-22T10:40:25.669Z,97098.19
2018-07-22T10:42:55.579Z,97095.53
2018-07-22T10:45:25.498Z,97106.30
2018-07-22T10:47:55.395Z,97096.98
2018-07-22T10:50:25.519Z,97092.43
2018-07-22T10:52:55.450Z,97099.47
2018-07-22T10:55:25.659Z,97092.05
2018-07-22T10:57:55.809Z,97093.38
2018-07-22T11:00:25.800Z,97091.33
2018-07-22T11:02:55.713Z,97094.14
2018-07-22T11:05:25.698Z,97091.95
2018-07-22T11:07:55.775Z,97090.97
2018-07-22T11:10:25.921Z,97094.80
2018-07-22T11:12:55.852Z,97089.83
2018-07-22T11:15:25.854Z,97095.32
2018-07-22T11:17:55.856Z,97092.45
2018-07-22T11:20:25.855Z,97087.49
2018-07-22T11:22:55.716Z,97077.17
2018-07-22T11:25:25.834Z,97063.84
2018-07-22T11:27:55.717Z,97065.11
2018-07-22T11:30:25.748Z,97065.55
2018-07-22T11:32:55.786Z,97065.09
2018-07-22T11:35:25.752Z,97071.07
2018-07-22T11:37:55.817Z,97068.96
2018-07-22T11:40:25.922Z,97062.33
2018-07-22T11:42:56.115Z,97057.06
2018-07-22T11:45:26.295Z,97055.32
2018-07-22T11:47:56.250Z,97045.66
2018-07-22T11:50:26.368Z,97042.95
2018-07-22T11:52:56.287Z,97044.34
2018-07-22T11:55:26.240Z,97040.14
2018-07-22T11:57:56.116Z,97040.80
2018-07-22T12:00:26.143Z,97040.04
2018-07-22T12:02:56.433Z,97039.27
2018-07-22T12:05:26.362Z,97033.64
2018-07-22T12:07:56.292Z,97034.61
2018-07-22T12:10:26.217Z,97025.91
2018-07-22T12:12:56.272Z,97026.60
2018-07-22T12:15:26.219Z,97029.02
2018-07-22T12:17:56.168Z,97028.54
2018-07-22T12:20:26.128Z,97024.84
2018-07-22T12:22:56.136Z,97030.17
2018-07-22T12:25:26.069Z,97022.27
2018-07-22T12:27:56.085Z,97017.17
2018-07-22T12:30:26.380Z,97020.31
2018-07-22T12:32:56.350Z,97017.14
2018-07-22T12:35:26.294Z,97017.61
2018-07-22T12:37:56.206Z,97022.58
2018-07-22T12:40:26.179Z,97020.56
2018-07-22T12:42:56.145Z,97022.67
2018-07-22T12:45:25.978Z,97015.63
2018-07-22T12:47:56.304Z,97018.50
2018-07-22T12:50:26.208Z,97012.06
2018-07-22T12:52:56.930Z,97000.20
2018-07-22T12:55:28.799Z,96988.25
2018-07-22T12:58:01.549Z,97004.84
2018-07-22T13:00:33.824Z,96983.02
2018-07-22T13:03:04.382Z,96998.09
2018-07-22T13:05:34.449Z,96993.77
2018-07-22T13:08:10.709Z,97000.95
2018-07-22T13:10:41.664Z,96994.23
2018-07-22T13:13:11.521Z,96985.08
2018-07-22T13:15:41.737Z,96982.73
2018-07-22T13:18:12.301Z,96987.90
2018-07-22T13:20:43.578Z,96985.08
2018-07-22T13:23:16.813Z,96989.83
2018-07-22T13:25:48.127Z,96975.86
2018-07-22T13:28:18.204Z,96973.50
2018-07-22T13:30:54.173Z,96972.64
2018-07-22T13:33:26.512Z,96959.23
2018-07-22T13:35:56.408Z,96965.50
2018-07-22T13:38:26.859Z,96972.30
2018-07-22T13:40:56.770Z,96964.62
2018-07-22T13:43:26.752Z,96965.88
2018-07-22T13:45:57.023Z,96968.41
2018-07-22T13:48:26.965Z,96967.47
2018-07-22T13:50:57.202Z,96960.56
2018-07-22T13:53:27.107Z,96956.39
2018-07-22T13:55:59.320Z,96954.59
2018-07-22T13:58:29.255Z,96958.17
2018-07-22T14:00:59.180Z,96960.87
2018-07-22T14:03:29.097Z,96954.95
2018-07-22T14:05:59.116Z,96955.56
2018-07-22T14:08:29.239Z,96939.28
2018-07-22T14:11:01.509Z,96947.84
2018-07-22T14:13:31.537Z,96943.25
2018-07-22T14:16:03.809Z,96941.23
2018-07-22T14:18:33.787Z,96954.80
2018-07-22T14:21:04.928Z,96943.25
2018-07-22T14:23:36.499Z,96953.52
2018-07-22T14:26:08.215Z,96958.11
2018-07-22T14:28:38.250Z,96954.33
2018-07-22T14:31:09.664Z,96959.64
2018-07-22T14:33:39.714Z,96952.64
2018-07-22T14:36:09.879Z,96957.43
2018-07-22T14:38:40.117Z,96954.96
2018-07-22T14:41:10.301Z,96949.49
2018-07-22T14:43:40.219Z,96940.81
2018-07-22T14:46:11.044Z,96945.94
2018-07-22T14:48:41.183Z,96946.77
2018-07-22T14:51:11.644Z,96950.42
2018-07-22T14:53:43.978Z,96956.59
2018-07-22T14:56:14.646Z,96955.64
2018-07-22T14:58:44.658Z,96959.94
2018-07-22T15:01:14.951Z,96960.43
2018-07-22T15:03:45.505Z,96968.55
2018-07-22T15:06:16.185Z,96967.55
2018-07-22T15:08:46.470Z,96964.96
2018-07-22T15:11:17.326Z,96961.66
2018-07-22T15:13:47.549Z,96968.39
2018-07-22T15:16:17.895Z,96980.15
2018-07-22T15:18:48.937Z,96977.19
2018-07-22T15:21:19.992Z,96966.64
2018-07-22T15:23:50.258Z,96961.66
2018-07-22T15:26:21.301Z,96962.84
2018-07-22T15:28:51.611Z,96960.03
2018-07-22T15:31:21.783Z,96958.57
2018-07-22T15:33:51.856Z,96956.95
2018-07-22T15:36:22.926Z,96959.63
2018-07-22T15:38:54.216Z,96970.77
2018-07-22T15:41:24.922Z,96963.92
2018-07-22T15:43:55.650Z,96976.67
2018-07-22T15:46:26.271Z,96977.15
2018-07-22T15:49:08.080Z,96967.00
2018-07-22T15:51:38.319Z,96971.52
2018-07-22T15:54:09.086Z,96967.14
2018-07-22T15:56:39.426Z,96959.45
2018-07-22T15:59:11.189Z,96956.83
2018-07-22T16:01:41.668Z,96956.16
2018-07-22T16:04:13.697Z,96954.48
2018-07-22T16:06:43.765Z,96955.66
2018-07-22T16:09:13.658Z,96963.09
2018-07-22T16:11:44.133Z,96963.80
2018-07-22T16:14:14.104Z,96961.77
2018-07-22T16:16:44.177Z,96961.77
2018-07-22T16:19:14.079Z,96960.97
2018-07-22T16:21:44.448Z,96956.00
2018-07-22T16:24:14.349Z,96970.28
2018-07-22T16:26:44.269Z,96967.43
2018-07-22T16:29:14.051Z,96969.16
2018-07-22T16:31:44.198Z,96983.66
2018-07-22T16:34:14.180Z,96966.61
2018-07-22T16:36:44.076Z,96968.63
2018-07-22T16:39:14.076Z,96969.30
2018-07-22T16:41:44.008Z,96973.78
2018-07-22T16:44:13.990Z,96969.58
2018-07-22T16:46:44.131Z,96966.47
2018-07-22T16:49:13.967Z,96976.84
2018-07-22T16:51:43.969Z,96978.73
2018-07-22T16:54:14.017Z,96982.47
2018-07-22T16:56:43.981Z,96976.89
2018-07-22T16:59:13.772Z,96981.20
2018-07-22T17:01:43.658Z,96978.73
2018-07-22T17:04:13.737Z,96989.21
2018-07-22T17:06:43.646Z,96988.70
2018-07-22T17:09:13.482Z,96988.91
2018-07-22T17:11:43.480Z,96996.84
2018-07-22T17:14:13.659Z,96991.31
2018-07-22T17:16:44.330Z,96984.16
2018-07-22T17:19:14.199Z,96995.02
2018-07-22T17:21:44.172Z,96987.98
2018-07-22T17:24:14.269Z,96995.18
2018-07-22T17:26:44.184Z,96994.89
2018-07-22T17:29:14.295Z,96997.59
2018-07-22T17:31:44.245Z,97007.05
2018-07-22T17:34:14.214Z,97002.25
2018-07-22T17:36:44.280Z,97008.94
2018-07-22T17:39:14.280Z,97011.61
2018-07-22T17:41:44.462Z,97013.14
2018-07-22T17:44:14.340Z,97024.06
2018-07-22T17:46:44.540Z,97019.90
2018-07-22T17:49:14.992Z,97015.23
2018-07-22T17:51:44.921Z,97007.78
2018-07-22T17:54:14.781Z,97012.80
2018-07-22T17:56:44.840Z,97008.75
2018-07-22T17:59:15.052Z,97005.55
2018-07-22T18:01:44.987Z,97006.63
2018-07-22T18:04:15.011Z,97006.50
2018-07-22T18:06:45.044Z,97015.70
2018-07-22T18:09:15.390Z,97016.47
2018-07-22T18:11:45.681Z,97015.59
2018-07-22T18:14:15.923Z,97020.44
2018-07-22T18:16:45.924Z,97025.73
2018-07-22T18:19:16.155Z,97027.44
2018-07-22T18:21:47.410Z,97026.66
2018-07-22T18:24:17.581Z,97024.36
2018-07-22T18:26:47.556Z,97023.20
2018-07-22T18:29:17.987Z,97035.03
2018-07-22T18:31:48.819Z,97032.70
2018-07-22T18:34:18.759Z,97037.75
2018-07-22T18:36:48.986Z,97049.73
2018-07-22T18:39:19.113Z,97051.89
2018-07-22T18:41:49.025Z,97052.97
2018-07-22T18:44:19.091Z,97059.66
2018-07-22T18:46:49.058Z,97057.19
2018-07-22T18:49:18.996Z,97054.80
2018-07-22T18:51:48.997Z,97056.06
2018-07-22T18:54:19.046Z,97058.37
2018-07-22T18:56:48.964Z,97067.45
2018-07-22T18:59:18.918Z,97068.02
2018-07-22T19:01:48.922Z,97069.29
2018-07-22T19:04:18.865Z,97066.41
2018-07-22T19:06:48.857Z,97067.43
2018-07-22T19:09:18.986Z,97069.64
2018-07-22T19:11:52.669Z,97069.39
2018-07-22T19:14:22.633Z,97076.14
2018-07-22T19:16:52.535Z,97085.92
2018-07-22T19:19:22.752Z,97090.28
2018-07-22T19:21:52.653Z,97096.23
2018-07-22T19:24:22.662Z,97098.86
2018-07-22T19:26:53.832Z,97088.25
2018-07-22T19:29:23.965Z,97106.36
2018-07-22T19:31:53.887Z,97110.27
2018-07-22T19:34:23.832Z,97116.45
2018-07-22T19:36:53.923Z,97125.41
2018-07-22T19:39:25.205Z,97123.91
2018-07-22T19:41:55.412Z,97128.97
2018-07-22T19:44:27.764Z,97121.20
2018-07-22T19:46:58.462Z,97118.42
2018-07-22T19:49:28.570Z,97123.44
2018-07-22T19:51:59.227Z,97129.66
2018-07-22T19:54:29.896Z,97145.27
2018-07-22T19:57:00.005Z,97145.45
2018-07-22T19:59:32.501Z,97138.22
2018-07-22T20:02:02.943Z,97141.88
2018-07-22T20:07:43.308Z,97138.78
2018-07-22T20:10:16.213Z,97139.94
2018-07-22T20:12:50.177Z,97147.52
2018-07-22T20:15:21.615Z,97139.34
2018-07-22T20:17:52.107Z,97139.30
2018-07-22T20:20:24.392Z,97136.69
2018-07-22T20:22:54.541Z,97128.69
2018-07-22T20:25:25.213Z,97126.14
2018-07-22T20:27:55.500Z,97124.77
2018-07-22T20:30:26.039Z,97130.93
2018-07-22T20:32:56.142Z,97126.59
2018-07-22T20:35:26.372Z,97125.80
2018-07-22T20:37:56.985Z,97126.19
2018-07-22T20:40:26.939Z,97131.44
2018-07-22T20:42:57.281Z,97122.48
2018-07-22T20:45:27.969Z,97120.17
2018-07-22T20:47:58.387Z,97119.27
2018-07-22T20:50:29.766Z,97123.72
2018-07-22T20:52:59.964Z,97125.11
2018-07-22T20:55:30.557Z,97123.23
2018-07-22T20:58:00.638Z,97128.73
2018-07-22T21:00:31.404Z,97119.80
2018-07-22T21:03:01.759Z,97120.96
2018-07-22T21:05:32.009Z,97123.98
2018-07-22T21:08:02.149Z,97129.63
2018-07-22T21:10:33.372Z,97121.39
2018-07-22T21:13:14.358Z,97127.33
2018-07-22T21:15:44.516Z,97124.42
2018-07-22T21:18:14.957Z,97124.31
2018-07-22T21:20:45.649Z,97126.77
2018-07-22T21:23:16.173Z,97126.47
2018-07-22T21:25:46.917Z,97122.20
2018-07-22T21:28:17.440Z,97124.44
2018-07-22T21:30:47.864Z,97121.14
2018-07-22T21:33:18.895Z,97128.41
2018-07-22T21:35:49.746Z,97130.11
2018-07-22T21:38:20.140Z,97125.17
2018-07-22T21:40:51.073Z,97126.86
2018-07-22T21:43:21.962Z,97124.89
2018-07-22T21:45:52.393Z,97129.34
2018-07-22T21:48:22.519Z,97124.53
2018-07-22T21:50:52.731Z,97127.27
2018-07-22T21:53:22.624Z,97120.75
2018-07-22T21:55:52.612Z,97118.40
2018-07-22T21:58:22.714Z,97122.83
2018-07-22T22:01:06.654Z,97121.55
2018-07-22T22:03:40.755Z,97127.44
2018-07-22T22:06:12.290Z,97127.99
2018-07-22T22:08:42.278Z,97125.56
2018-07-22T22:11:12.672Z,97131.28
2018-07-22T22:13:43.042Z,97132.87
2018-07-22T22:16:13.284Z,97135.85
2018-07-22T22:18:43.970Z,97134.53
2018-07-22T22:21:14.849Z,97133.09
2018-07-22T22:23:44.973Z,97134.30
2018-07-22T22:26:15.050Z,97138.84
2018-07-22T22:28:50.580Z,97139.84
2018-07-22T22:31:21.077Z,97140.46
2018-07-22T22:33:51.075Z,97136.61
2018-07-22T22:36:21.318Z,97119.17
2018-07-22T22:38:51.336Z,97120.86
2018-07-22T22:41:21.313Z,97113.61
2018-07-22T22:43:51.258Z,97113.13
2018-07-22T22:46:22.500Z,97110.42
2018-07-22T22:48:52.690Z,97107.46
2018-07-22T22:51:22.862Z,97115.38
2018-07-22T22:53:54.547Z,97128.70
2018-07-22T22:56:26.394Z,97126.13
2018-07-22T22:59:10.101Z,97128.88
2018-07-22T23:01:40.489Z,97129.10
2018-07-22T23:04:15.955Z,97128.86
2018-07-22T23:06:50.169Z,97132.97
2018-07-22T23:09:20.176Z,97137.25
2018-07-22T23:11:50.420Z,97135.66
2018-07-22T23:14:20.568Z,97131.19
2018-07-22T23:16:51.615Z,97131.41
2018-07-22T23:19:22.278Z,97129.81
2018-07-22T23:22:00.145Z,97122.93
2018-07-22T23:24:34.928Z,97134.71
2018-07-22T23:27:09.444Z,97132.36
2018-07-22T23:29:40.509Z,97134.65
2018-07-22T23:32:10.797Z,97134.53
2018-07-22T23:34:40.928Z,97125.77
2018-07-22T23:37:11.094Z,97125.72
2018-07-22T23:39:40.911Z,97124.84
2018-07-22T23:42:11.011Z,97119.92
2018-07-22T23:44:40.978Z,97111.92
2018-07-22T23:47:11.151Z,97112.87
2018-07-22T23:49:41.380Z,97112.17
2018-07-22T23:52:12.298Z,97109.93
2018-07-22T23:54:42.211Z,97112.36
2018-07-22T23:57:12.165Z,97106.23
2018-07-22T23:59:42.215Z,97101.32
